Time,TemperatureF,DewpointF,PressureIn,WindDirection,WindDirectionDegrees,WindSpeedMPH,WindSpeedGustMPH,Humidity,HourlyPrecipIn,Conditions,Clouds,dailyrainin,SoftwareType,DateUTC
2013-01-18 00:03:00,-999.0,-99.9,30.39,North,350,5.0,6.0,-999,-99.99,,,-99.99,,2013-01-18 09:03:00,
2013-01-18 00:12:00,-9.0,-99.9,30.39,NNW,341,4.0,5.0,-999,-99.99,,,-99.99,,2013-01-18 09:12:00,
2013-01-18 00:22:00,-999.0,-99.9,30.40,North,5,3.0,5.0,-999,-99.99,,,-99.99,,2013-01-18 09:22:00,
2013-01-18 00:33:00,-999.0,-99.9,30.40,NE,38,2.0,4.0,-999,-99.99,,,-99.99,,2013-01-18 09:33:00,
2013-01-18 00:43:00,-9.0,-99.9,30.40,NNW,341,4.0,5.0,-999,-99.99,,,-99.99,,2013-01-18 09:43:00,
2013-01-18 00:53:00,-999.0,-99.9,30.40,West,278,3.0,4.0,-999,-99.99,,,-99.99,,2013-01-18 09:53:00,
2013-01-18 01:03:00,-999.0,-99.9,30.41,WNW,293,2.0,4.0,-999,-99.99,,,-99.99,,2013-01-18 10:03:00,
2013-01-18 01:12:00,-11.0,-99.9,30.41,West,261,3.0,4.0,-999,-99.99,,,-99.99,,2013-01-18 10:12:00,
2013-01-18 01:22:00,-999.0,-99.9,30.41,NNW,348,4.0,6.0,-999,-99.99,,,-99.99,,2013-01-18 10:22:00,
2013-01-18 01:33:00,-999.0,-99.9,30.41,NNE,26,7.0,12.0,-999,-99.99,,,-99.99,,2013-01-18 10:33:00,
2013-01-18 01:43:00,-999.0,-99.9,30.41,NNE,33,17.0,22.0,-999,-99.99,,,-99.99,,2013-01-18 10:43:00,
2013-01-18 02:03:00,-999.0,-99.9,30.41,NE,39,17.0,22.0,-999,-99.99,,,-99.99,,2013-01-18 11:03:00,
2013-01-18 02:12:00,-1.0,-99.9,30.41,NE,42,17.0,22.0,-999,-99.99,,,-99.99,,2013-01-18 11:12:00,
2013-01-18 02:23:00,-999.0,-99.9,30.42,NE,43,17.0,19.0,-999,-99.99,,,-99.99,,2013-01-18 11:23:00,
2013-01-18 02:33:00,-999.0,-99.9,30.43,NE,45,12.0,19.0,-999,-99.99,,,-99.99,,2013-01-18 11:33:00,
2013-01-18 02:43:00,-2.0,-99.9,30.43,NE,54,11.0,18.0,-999,-99.99,,,-99.99,,2013-01-18 11:43:00,
2013-01-18 02:53:00,-999.0,-99.9,30.43,NE,44,14.0,17.0,-999,-99.99,,,-99.99,,2013-01-18 11:53:00,
2013-01-18 03:03:00,-999.0,-99.9,30.43,NNE,31,15.0,18.0,-999,-99.99,,,-99.99,,2013-01-18 12:03:00,
2013-01-18 03:12:00,-999.0,-99.9,30.44,NE,46,12.0,16.0,-999,-99.99,,,-99.99,,2013-01-18 12:12:00,
2013-01-18 03:23:00,-999.0,-99.9,30.44,NE,43,13.0,19.0,-999,-99.99,,,-99.99,,2013-01-18 12:23:00,
2013-01-18 03:33:00,-999.0,-99.9,30.44,NE,42,14.0,17.0,-999,-99.99,,,-99.99,,2013-01-18 12:33:00,
2013-01-18 03:43:00,-1.0,-99.9,30.45,NE,43,15.0,20.0,-999,-99.99,,,-99.99,,2013-01-18 12:43:00,
2013-01-18 03:53:00,-999.0,-99.9,30.45,NE,39,19.0,23.0,-999,-99.99,,,-99.99,,2013-01-18 12:53:00,
2013-01-18 04:03:00,-999.0,-99.9,30.44,NE,42,19.0,22.0,-999,-99.99,,,-99.99,,2013-01-18 13:03:00,
2013-01-18 04:12:00,-1.0,-99.9,30.44,NE,44,20.0,24.0,-999,-99.99,,,-99.99,,2013-01-18 13:12:00,
2013-01-18 04:23:00,-999.0,-99.9,30.45,NE,37,20.0,24.0,-999,-99.99,,,-99.99,,2013-01-18 13:23:00,
2013-01-18 04:33:00,-999.0,-99.9,30.45,NE,36,19.0,23.0,-999,-99.99,,,-99.99,,2013-01-18 13:33:00,
2013-01-18 04:53:00,-999.0,-99.9,30.46,NE,36,18.0,23.0,-999,-99.99,,,-99.99,,2013-01-18 13:53:00,
2013-01-18 05:03:00,-999.0,-99.9,30.46,NE,38,18.0,24.0,-999,-99.99,,,-99.99,,2013-01-18 14:03:00,
2013-01-18 05:23:00,-999.0,-99.9,30.46,NNE,26,15.0,20.0,-999,-99.99,,,-99.99,,2013-01-18 14:23:00,
2013-01-18 05:34:00,-999.0,-99.9,30.46,NNE,31,13.0,17.0,-999,-99.99,,,-99.99,,2013-01-18 14:34:00,
2013-01-18 05:43:00,-999.0,-99.9,30.46,NNE,31,15.0,19.0,-999,-99.99,,,-99.99,,2013-01-18 14:43:00,
2013-01-18 05:53:00,-999.0,-99.9,30.46,NNE,30,15.0,19.0,-999,-99.99,,,-99.99,,2013-01-18 14:53:00,
2013-01-18 06:03:00,-999.0,-99.9,30.46,NNE,30,14.0,18.0,-999,-99.99,,,-99.99,,2013-01-18 15:03:00,
2013-01-18 06:23:00,-999.0,-99.9,30.47,NE,39,14.0,17.0,-999,-99.99,,,-99.99,,2013-01-18 15:23:00,
2013-01-18 06:34:00,-999.0,-99.9,30.47,NE,36,11.0,14.0,-999,-99.99,,,-99.99,,2013-01-18 15:34:00,
2013-01-18 06:54:00,-999.0,-99.9,30.48,NE,36,10.0,11.0,-999,-99.99,,,-99.99,,2013-01-18 15:54:00,
2013-01-18 07:03:00,-999.0,-99.9,30.48,NNE,13,6.0,9.0,-999,-99.99,,,-99.99,,2013-01-18 16:03:00,
2013-01-18 07:13:00,-999.0,-99.9,30.48,NNE,18,6.0,7.0,-999,-99.99,,,-99.99,,2013-01-18 16:13:00,
2013-01-18 07:23:00,-999.0,-99.9,30.48,NNE,29,9.0,12.0,-999,-99.99,,,-99.99,,2013-01-18 16:23:00,
2013-01-18 07:33:00,-999.0,-99.9,30.48,North,10,5.0,9.0,-999,-99.99,,,-99.99,,2013-01-18 16:33:00,
2013-01-18 07:43:00,-1.0,-99.9,30.48,North,11,6.0,10.0,-999,-99.99,,,-99.99,,2013-01-18 16:43:00,
2013-01-18 07:53:00,-999.0,-99.9,30.48,NNE,15,7.0,13.0,-999,-99.99,,,-99.99,,2013-01-18 16:53:00,
2013-01-18 08:03:00,-999.0,-99.9,30.49,NW,326,7.0,9.0,-999,-99.99,,,-99.99,,2013-01-18 17:03:00,
2013-01-18 08:13:00,-1.0,-99.9,30.49,NNW,338,11.0,13.0,-999,-99.99,,,-99.99,,2013-01-18 17:13:00,
2013-01-18 08:23:00,-999.0,-99.9,30.49,NNW,345,11.0,13.0,-999,-99.99,,,-99.99,,2013-01-18 17:23:00,
2013-01-18 08:34:00,-999.0,-99.9,30.49,NNW,342,12.0,15.0,-999,-99.99,,,-99.99,,2013-01-18 17:34:00,
2013-01-18 08:43:00,-1.0,-99.9,30.49,NNW,347,11.0,14.0,-999,-99.99,,,-99.99,,2013-01-18 17:43:00,
2013-01-18 08:53:00,-999.0,-99.9,30.49,NNW,344,11.0,13.0,-999,-99.99,,,-99.99,,2013-01-18 17:53:00,
2013-01-18 09:03:00,-999.0,-99.9,30.49,North,353,11.0,13.0,-999,-99.99,,,-99.99,,2013-01-18 18:03:00,
2013-01-18 09:24:00,-999.0,-99.9,30.50,North,355,11.0,13.0,-999,-99.99,,,-99.99,,2013-01-18 18:24:00,
2013-01-18 09:34:00,-999.0,-99.9,30.50,North,354,11.0,13.0,-999,-99.99,,,-99.99,,2013-01-18 18:34:00,
2013-01-18 09:53:00,-999.0,-99.9,30.50,North,359,13.0,15.0,-999,-99.99,,,-99.99,,2013-01-18 18:53:00,
2013-01-18 10:03:00,-999.0,-99.9,30.50,North,-999,10.0,14.0,-999,-99.99,,,-99.99,,2013-01-18 19:03:00,
2013-01-18 10:13:00,1.0,-99.9,30.50,North,9,11.0,13.0,-999,-99.99,,,-99.99,,2013-01-18 19:13:00,
2013-01-18 10:23:00,-999.0,-99.9,30.51,North,8,12.0,16.0,-999,-99.99,,,-99.99,,2013-01-18 19:23:00,
2013-01-18 10:33:00,-999.0,-99.9,30.50,North,11,14.0,17.0,-999,-99.99,,,-99.99,,2013-01-18 19:33:00,
2013-01-18 10:43:00,-999.0,-99.9,30.51,North,11,12.0,15.0,-999,-99.99,,,-99.99,,2013-01-18 19:43:00,
2013-01-18 10:53:00,1.0,-99.9,30.51,NNE,19,13.0,15.0,-999,-99.99,,,-99.99,,2013-01-18 19:53:00,
2013-01-18 11:03:00,-999.0,-99.9,30.51,NNE,17,11.0,14.0,-999,-99.99,,,-99.99,,2013-01-18 20:03:00,
2013-01-18 11:13:00,2.0,-99.9,30.52,NNE,16,12.0,14.0,-999,-99.99,,,-99.99,,2013-01-18 20:13:00,
2013-01-18 11:23:00,-999.0,-99.9,30.52,North,9,13.0,18.0,-999,-99.99,,,-99.99,,2013-01-18 20:23:00,
2013-01-18 11:33:00,-999.0,-99.9,30.52,NNE,13,12.0,15.0,-999,-99.99,,,-99.99,,2013-01-18 20:33:00,
2013-01-18 11:43:00,-999.0,-99.9,30.52,NNE,19,11.0,16.0,-999,-99.99,,,-99.99,,2013-01-18 20:43:00,
2013-01-18 11:53:00,-999.0,-99.9,30.53,NNE,22,9.0,14.0,-999,-99.99,,,-99.99,,2013-01-18 20:53:00,
2013-01-18 12:03:00,-999.0,-99.9,30.53,NW,306,2.0,7.0,-999,-99.99,,,-99.99,,2013-01-18 21:03:00,
2013-01-18 12:23:00,-999.0,-99.9,30.53,NW,320,4.0,5.0,-999,-99.99,,,-99.99,,2013-01-18 21:23:00,
2013-01-18 12:33:00,-999.0,-99.9,30.53,NW,318,9.0,11.0,-999,-99.99,,,-99.99,,2013-01-18 21:33:00,
2013-01-18 12:43:00,-1.0,-99.9,30.53,NNW,338,10.0,13.0,-999,-99.99,,,-99.99,,2013-01-18 21:43:00,
2013-01-18 12:53:00,-999.0,-99.9,30.53,NNW,330,10.0,12.0,-999,-99.99,,,-99.99,,2013-01-18 21:53:00,
2013-01-18 13:03:00,-999.0,-99.9,30.53,NW,321,13.0,16.0,-999,-99.99,,,-99.99,,2013-01-18 22:03:00,
2013-01-18 13:12:00,-999.0,-99.9,30.53,NW,313,13.0,15.0,-999,-99.99,,,-99.99,,2013-01-18 22:12:00,
2013-01-18 13:23:00,-999.0,-99.9,30.54,NW,326,11.0,14.0,-999,-99.99,,,-99.99,,2013-01-18 22:23:00,
2013-01-18 13:33:00,-999.0,-99.9,30.54,NNW,328,8.0,11.0,-999,-99.99,,,-99.99,,2013-01-18 22:33:00,
2013-01-18 13:43:00,-999.0,-99.9,30.54,NNW,328,8.0,11.0,-999,-99.99,,,-99.99,,2013-01-18 22:43:00,
2013-01-18 13:53:00,-999.0,-99.9,30.53,NNW,336,10.0,15.0,-999,-99.99,,,-99.99,,2013-01-18 22:53:00,
2013-01-18 14:03:00,-999.0,-99.9,30.53,NNW,347,9.0,12.0,-999,-99.99,,,-99.99,,2013-01-18 23:03:00,
2013-01-18 14:23:00,-999.0,-99.9,30.53,NNW,348,9.0,13.0,-999,-99.99,,,-99.99,,2013-01-18 23:23:00,
2013-01-18 14:33:00,-999.0,-99.9,30.53,North,356,7.0,10.0,-999,-99.99,,,-99.99,,2013-01-18 23:33:00,
2013-01-18 14:43:00,-999.0,-99.9,30.53,NNW,346,12.0,16.0,-999,-99.99,,,-99.99,,2013-01-18 23:43:00,
2013-01-18 14:53:00,-999.0,-99.9,30.53,North,350,13.0,15.0,-999,-99.99,,,-99.99,,2013-01-18 23:53:00,
2013-01-18 15:03:00,-999.0,-99.9,30.52,North,356,11.0,14.0,-999,-99.99,,,-99.99,,2013-01-19 00:03:00,
2013-01-18 15:23:00,-999.0,-99.9,30.52,North,352,11.0,15.0,-999,-99.99,,,-99.99,,2013-01-19 00:23:00,
2013-01-18 15:33:00,-999.0,-99.9,30.52,North,353,10.0,13.0,-999,-99.99,,,-99.99,,2013-01-19 00:33:00,
2013-01-18 15:53:00,-999.0,-99.9,30.51,North,353,11.0,17.0,-999,-99.99,,,-99.99,,2013-01-19 00:53:00,
2013-01-18 16:03:00,-999.0,-99.9,30.51,NNW,333,12.0,15.0,-999,-99.99,,,-99.99,,2013-01-19 01:03:00,
2013-01-18 16:12:00,-999.0,-99.9,30.51,North,355,11.0,15.0,-999,-99.99,,,-99.99,,2013-01-19 01:12:00,
2013-01-18 16:23:00,1.0,-99.9,30.51,North,353,10.0,14.0,-999,-99.99,,,-99.99,,2013-01-19 01:23:00,
2013-01-18 16:33:00,-999.0,-99.9,30.51,North,352,7.0,10.0,-999,-99.99,,,-99.99,,2013-01-19 01:33:00,
2013-01-18 16:43:00,1.0,-99.9,30.51,NNW,344,6.0,10.0,-999,-99.99,,,-99.99,,2013-01-19 01:43:00,
2013-01-18 16:53:00,-999.0,-99.9,30.50,NNW,330,4.0,9.0,-999,-99.99,,,-99.99,,2013-01-19 01:53:00,
2013-01-18 17:03:00,-999.0,-99.9,30.50,NNW,328,12.0,16.0,-999,-99.99,,,-99.99,,2013-01-19 02:03:00,
2013-01-18 17:12:00,3.0,-99.9,30.50,NNE,19,9.0,13.0,-999,-99.99,,,-99.99,,2013-01-19 02:12:00,
2013-01-18 17:23:00,-999.0,-99.9,30.50,NNE,30,14.0,16.0,-999,-99.99,,,-99.99,,2013-01-19 02:23:00,
2013-01-18 17:33:00,-999.0,-99.9,30.50,NW,323,10.0,13.0,-999,-99.99,,,-99.99,,2013-01-19 02:33:00,
2013-01-18 17:43:00,-999.0,-99.9,30.50,NNE,12,9.0,15.0,-999,-99.99,,,-99.99,,2013-01-19 02:43:00,
2013-01-18 17:53:00,-999.0,-99.9,30.49,NNE,28,14.0,18.0,-999,-99.99,,,-99.99,,2013-01-19 02:53:00,
2013-01-18 18:03:00,-999.0,-99.9,30.50,NNE,26,8.0,14.0,-999,-99.99,,,-99.99,,2013-01-19 03:03:00,
2013-01-18 18:12:00,4.0,-99.9,30.50,NNE,24,12.0,17.0,-999,-99.99,,,-99.99,,2013-01-19 03:12:00,
2013-01-18 18:23:00,-999.0,-99.9,30.49,NNE,27,13.0,17.0,-999,-99.99,,,-99.99,,2013-01-19 03:23:00,
2013-01-18 18:33:00,-999.0,-99.9,30.49,NNE,27,13.0,17.0,-999,-99.99,,,-99.99,,2013-01-19 03:33:00,
2013-01-18 18:44:00,1.0,-99.9,30.49,NNE,23,5.0,7.0,-999,-99.99,,,-99.99,,2013-01-19 03:44:00,
2013-01-18 18:53:00,-999.0,-99.9,30.49,NNE,29,11.0,14.0,-999,-99.99,,,-99.99,,2013-01-19 03:53:00,
2013-01-18 19:03:00,2.0,-99.9,30.49,NE,35,14.0,17.0,-999,-99.99,,,-99.99,,2013-01-19 04:03:00,
2013-01-18 19:12:00,-999.0,-99.9,30.48,NNE,31,15.0,18.0,-999,-99.99,,,-99.99,,2013-01-19 04:12:00,
2013-01-18 19:22:00,-999.0,-99.9,30.48,NNE,28,17.0,20.0,-999,-99.99,,,-99.99,,2013-01-19 04:22:00,
2013-01-18 19:33:00,-999.0,-99.9,30.47,NNE,31,20.0,26.0,-999,-99.99,,,-99.99,,2013-01-19 04:33:00,
2013-01-18 19:43:00,2.0,-99.9,30.47,NNE,32,21.0,28.0,-999,-99.99,,,-99.99,,2013-01-19 04:43:00,
2013-01-18 19:53:00,-999.0,-99.9,30.47,NNE,30,22.0,29.0,-999,-99.99,,,-99.99,,2013-01-19 04:53:00,
2013-01-18 20:04:00,-999.0,-99.9,30.47,NNE,31,22.0,29.0,-999,-99.99,,,-99.99,,2013-01-19 05:04:00,
2013-01-18 20:13:00,-999.0,-99.9,30.47,NNE,24,15.0,20.0,-999,-99.99,,,-99.99,,2013-01-19 05:13:00,
2013-01-18 20:23:00,2.0,-99.9,30.47,NNE,13,12.0,17.0,-999,-99.99,,,-99.99,,2013-01-19 05:23:00,
2013-01-18 20:33:00,-999.0,-99.9,30.46,North,9,15.0,21.0,-999,-99.99,,,-99.99,,2013-01-19 05:33:00,
2013-01-18 20:43:00,3.0,-99.9,30.46,North,2,14.0,19.0,-999,-99.99,,,-99.99,,2013-01-19 05:43:00,
2013-01-18 20:53:00,-999.0,-99.9,30.46,NNW,346,14.0,17.0,-999,-99.99,,,-99.99,,2013-01-19 05:53:00,
2013-01-18 21:03:00,-999.0,-99.9,30.45,North,353,9.0,14.0,-999,-99.99,,,-99.99,,2013-01-19 06:03:00,
2013-01-18 21:12:00,1.0,-99.9,30.45,North,351,9.0,11.0,-999,-99.99,,,-99.99,,2013-01-19 06:12:00,
2013-01-18 21:23:00,-999.0,-99.9,30.44,NNW,338,8.0,11.0,-999,-99.99,,,-99.99,,2013-01-19 06:23:00,
2013-01-18 21:33:00,-999.0,-99.9,30.44,NNE,22,6.0,9.0,-999,-99.99,,,-99.99,,2013-01-19 06:33:00,
2013-01-18 21:43:00,2.0,-99.9,30.43,NNE,31,9.0,13.0,-999,-99.99,,,-99.99,,2013-01-19 06:43:00,
2013-01-18 21:53:00,-999.0,-99.9,30.43,NE,37,19.0,23.0,-999,-99.99,,,-99.99,,2013-01-19 06:53:00,
2013-01-18 22:02:00,-999.0,-99.9,30.42,NE,35,20.0,24.0,-999,-99.99,,,-99.99,,2013-01-19 07:02:00,
2013-01-18 22:12:00,3.0,-99.9,30.42,NE,36,18.0,24.0,-999,-99.99,,,-99.99,,2013-01-19 07:12:00,
2013-01-18 22:23:00,-999.0,-99.9,30.42,NE,37,19.0,23.0,-999,-99.99,,,-99.99,,2013-01-19 07:23:00,
2013-01-18 22:33:00,-999.0,-99.9,30.41,NE,35,21.0,25.0,-999,-99.99,,,-99.99,,2013-01-19 07:33:00,
2013-01-18 22:43:00,3.0,-99.9,30.41,NE,34,22.0,26.0,-999,-99.99,,,-99.99,,2013-01-19 07:43:00,
2013-01-18 22:53:00,-999.0,-99.9,30.41,NE,35,20.0,26.0,-999,-99.99,,,-99.99,,2013-01-19 07:53:00,
2013-01-18 23:03:00,-999.0,-99.9,30.41,NNE,32,18.0,24.0,-999,-99.99,,,-99.99,,2013-01-19 08:03:00,
2013-01-18 23:12:00,-999.0,-99.9,30.40,NE,34,18.0,21.0,-999,-99.99,,,-99.99,,2013-01-19 08:12:00,
2013-01-18 23:22:00,2.0,-99.9,30.40,NNE,32,17.0,22.0,-999,-99.99,,,-99.99,,2013-01-19 08:22:00,
2013-01-18 23:33:00,-999.0,-99.9,30.40,NNE,31,17.0,22.0,-999,-99.99,,,-99.99,,2013-01-19 08:33:00,
2013-01-18 23:43:00,2.0,-99.9,30.40,NE,34,20.0,24.0,-999,-99.99,,,-99.99,,2013-01-19 08:43:00,
2013-01-18 23:53:00,-999.0,-99.9,30.39,NE,39,20.0,24.0,-999,-99.99,,,-99.99,,2013-01-19 08:53:00,